Aérodrome :
LOGIN :

S'inscrire | Disclaimer

   EN    FR    IT 

 










Légende :    VFR   VFR Marginal   IFR   IFR Intensif   IFR Très Intensif
Visi : 
Plafond : 
>= 8 km
>= 3000ft
5 à 8 km
1000 à 3000 ft
1500m à 5 km
500 à 1000 ft
800 à 1500m
200 à 500 ft
< 800m
< 200 ft
Symboles :   Orages  Brouillard  Fortes neiges  Fortes précipitations  Vent > 20 kt
SIGMETs :   Divers  Orages  Givrage  Turbulence  Onde Orograph.  Cendres Volcan.







- Altitude de l'aérodrome : 479 ft
- Code IATA : DOL
- Voir les cartes d'approche


LFRG - Deauville

DERNIER METAR :
  • 140630Z AUTO 27006KT 9999 BKN008 BKN013 OVC049 17/16 Q1018 BECMG BKN020

METARs EXPIRÉS :
  • 140600Z AUTO 27004KT 250V320 9999 BKN012 OVC023 17/16 Q1017 BECMG BKN020
  • 140530Z AUTO 27006KT 240V300 9999 BKN010 BKN017 OVC034 17/15 Q1017 BECMG BKN020
  • 140500Z AUTO 30006KT 9999 BKN011 OVC018 17/15 Q1017
  • 140430Z AUTO 31007KT 280V360 9999 BKN012 OVC017 17/15 Q1016
  • 140400Z AUTO 31007KT 280V340 9999 OVC012 17/15 Q1016

TAF TAF LFRG
Valide du 14 à 06h jusqu'au 14 à 15h UTC


140500Z 1406/1415 30008KT 9999 BKN012
BECMG 1406/1408 BKN020
ATIS : +33 2 31 65 65 36
Pas de NOTAMs connus pour ce terrain.



MET'MAP, la Météo Aéronautique d'un coup d'oeil ! - Copyright ORBIFLY Décembre 2007 - Disclaimer

ORBIFLY MET'MAP TEAM :

Programmation & Développement : Alexandra Zaïnal
Conception & Développement : Baudouin d'Aumeries
Co-Programmation & Développement : Marc-Olivier Méhu
Soutien technique & logistique : Manuel Goepfert

Contact : metmap@orbifly.com




SOURCES & CREDITS :

   NOAA